createdAt,value
2018-06-09T00:01:04.810Z,102320.45
2018-06-09T00:02:41.639Z,102318.75
2018-06-09T00:04:18.219Z,102351.05
2018-06-09T00:05:55.651Z,102353.77
2018-06-09T00:07:33.144Z,102335.34
2018-06-09T00:09:10.747Z,102297.12
2018-06-09T00:10:48.976Z,102306.62
2018-06-09T00:12:29.262Z,102285.08
2018-06-09T00:14:06.945Z,102214.14
2018-06-09T00:15:45.824Z,102171.05
2018-06-09T00:17:25.133Z,102135.58
2018-06-09T00:19:03.284Z,102100.19
2018-06-09T00:20:42.517Z,102075.53
2018-06-09T00:22:20.987Z,102100.66
2018-06-09T00:23:58.159Z,102113.21
2018-06-09T00:25:35.219Z,102096.17
2018-06-09T00:27:11.785Z,102107.31
2018-06-09T00:28:48.477Z,102081.34
2018-06-09T00:30:29.598Z,102059.82
2018-06-09T00:32:06.906Z,102043.70
2018-06-09T00:33:43.742Z,102001.50
2018-06-09T00:36:52.334Z,101936.55
2018-06-09T00:38:28.930Z,101952.22
2018-06-09T00:40:06.057Z,101947.34
2018-06-09T00:41:42.614Z,101927.99
2018-06-09T00:43:18.978Z,101926.69
2018-06-09T00:44:55.387Z,101902.47
2018-06-09T00:46:31.997Z,101876.95
2018-06-09T00:48:13.193Z,101870.70
2018-06-09T00:49:51.463Z,101871.58
2018-06-09T00:51:28.736Z,101892.14
2018-06-09T00:53:05.153Z,101866.24
2018-06-09T00:54:42.448Z,101787.38
2018-06-09T00:56:35.101Z,101788.73
2018-06-09T00:58:12.301Z,101750.23
2018-06-09T00:59:49.626Z,101718.45
2018-06-09T01:01:25.958Z,101649.11
2018-06-09T01:03:02.219Z,101574.34
2018-06-09T01:04:39.908Z,101578.03
2018-06-09T01:06:18.029Z,101525.27
2018-06-09T01:07:57.669Z,101555.59
2018-06-09T01:09:34.238Z,101565.42
2018-06-09T01:11:11.231Z,101594.14
2018-06-09T01:12:47.934Z,101649.17
2018-06-09T01:14:26.482Z,101663.87
2018-06-09T01:16:03.447Z,101636.62
2018-06-09T01:17:40.473Z,101631.29
2018-06-09T01:19:16.955Z,101633.53
2018-06-09T01:20:53.480Z,101607.16
2018-06-09T01:22:31.515Z,101582.89
2018-06-09T01:24:08.550Z,101503.77
2018-06-09T01:25:45.305Z,101413.12
2018-06-09T01:27:21.750Z,101299.66
2018-06-09T01:28:58.334Z,101197.46
2018-06-09T01:30:35.475Z,101155.50
2018-06-09T01:32:12.011Z,101130.08
2018-06-09T01:33:49.260Z,101156.38
2018-06-09T01:35:25.647Z,101179.16
2018-06-09T01:37:01.863Z,101152.38
2018-06-09T01:38:40.307Z,101231.83
2018-06-09T01:40:17.318Z,101287.56
2018-06-09T01:41:55.084Z,101329.56
2018-06-09T01:43:32.927Z,101396.11
2018-06-09T01:45:11.178Z,101389.45
2018-06-09T01:46:47.975Z,101411.35
2018-06-09T01:48:24.847Z,101468.09
2018-06-09T01:50:01.401Z,101502.09
2018-06-09T01:51:38.695Z,101520.84
2018-06-09T01:53:16.150Z,101546.79
2018-06-09T01:54:53.063Z,101596.91
2018-06-09T01:56:30.598Z,101633.59
2018-06-09T01:58:07.047Z,101662.25
2018-06-09T01:59:46.388Z,101681.49
2018-06-09T02:01:24.681Z,101724.02
2018-06-09T02:03:03.326Z,101750.44
2018-06-09T02:04:40.879Z,101686.86
2018-06-09T02:06:19.378Z,101611.23
2018-06-09T02:07:55.736Z,101501.27
2018-06-09T02:09:32.326Z,101401.11
2018-06-09T02:11:08.661Z,101339.03
2018-06-09T02:12:45.089Z,101224.34
2018-06-09T02:14:21.994Z,101155.62
2018-06-09T02:15:59.799Z,101096.78
2018-06-09T02:17:37.446Z,101100.84
2018-06-09T02:19:14.255Z,101114.20
2018-06-09T02:20:50.667Z,101140.08
2018-06-09T02:22:27.659Z,101171.73
2018-06-09T02:24:04.052Z,101163.67
2018-06-09T02:25:41.920Z,101139.14
2018-06-09T02:27:19.157Z,101133.80
2018-06-09T02:28:57.004Z,101101.72
2018-06-09T02:30:33.810Z,101103.44
2018-06-09T02:32:11.746Z,101107.50
2018-06-09T02:33:48.496Z,101131.09
2018-06-09T02:35:25.087Z,101183.84
2018-06-09T02:37:01.120Z,101206.14
2018-06-09T02:38:38.687Z,101203.91
2018-06-09T02:40:15.758Z,101189.72
2018-06-09T02:41:52.586Z,101145.43
2018-06-09T02:43:30.672Z,101136.09
2018-06-09T02:45:07.603Z,101192.33
2018-06-09T02:46:43.798Z,101198.56
2018-06-09T02:48:20.509Z,101227.58
2018-06-09T02:49:57.112Z,101254.83
2018-06-09T02:51:33.486Z,101289.20
2018-06-09T02:53:09.899Z,101317.34
2018-06-09T02:54:50.752Z,101351.22
2018-06-09T02:56:27.107Z,101366.45
2018-06-09T02:58:03.554Z,101356.58
2018-06-09T02:59:40.011Z,101348.20
2018-06-09T03:01:18.230Z,101341.80
2018-06-09T03:02:55.492Z,101368.70
2018-06-09T03:04:31.952Z,101388.79
2018-06-09T03:06:08.455Z,101413.41
2018-06-09T03:07:47.929Z,101413.36
2018-06-09T03:09:24.637Z,101423.72
2018-06-09T03:11:01.047Z,101448.27
2018-06-09T03:12:37.399Z,101470.19
2018-06-09T03:14:14.258Z,101524.30
2018-06-09T03:15:51.209Z,101531.89
2018-06-09T03:17:27.582Z,101547.05
2018-06-09T03:19:03.953Z,101551.06
2018-06-09T03:20:44.055Z,101572.17
2018-06-09T03:22:20.518Z,101608.42
2018-06-09T03:23:56.790Z,101605.25
2018-06-09T03:25:33.195Z,101625.36
2018-06-09T03:27:11.891Z,101613.79
2018-06-09T03:28:49.169Z,101614.20
2018-06-09T03:30:28.783Z,101597.17
2018-06-09T03:32:05.452Z,101554.30
2018-06-09T03:33:42.310Z,101544.88
2018-06-09T03:35:19.095Z,101571.80
2018-06-09T03:36:56.703Z,101574.03
2018-06-09T03:38:33.121Z,101592.32
2018-06-09T03:40:09.917Z,101594.94
2018-06-09T03:41:46.275Z,101596.70
2018-06-09T03:43:22.819Z,101587.84
2018-06-09T03:45:01.679Z,101591.49
2018-06-09T03:46:39.731Z,101608.84
2018-06-09T03:48:19.685Z,101643.80
2018-06-09T03:49:56.300Z,101643.34
2018-06-09T03:51:34.118Z,101625.45
2018-06-09T03:53:11.687Z,101604.42
2018-06-09T03:54:48.834Z,101585.66
2018-06-09T03:56:27.879Z,101539.13
2018-06-09T03:58:04.520Z,101511.43
2018-06-09T03:59:41.645Z,101498.00
2018-06-09T04:01:20.476Z,101481.02
2018-06-09T04:02:57.203Z,101451.09
2018-06-09T04:04:33.750Z,101430.55
2018-06-09T04:06:10.214Z,101440.37
2018-06-09T04:07:46.555Z,101458.27
2018-06-09T04:09:24.122Z,101470.81
2018-06-09T04:11:00.417Z,101512.38
2018-06-09T04:12:36.858Z,101513.67
2018-06-09T04:14:13.335Z,101522.20
2018-06-09T04:15:50.678Z,101521.73
2018-06-09T04:17:27.223Z,101515.02
2018-06-09T04:19:04.300Z,101495.86
2018-06-09T04:20:42.696Z,101453.80
2018-06-09T04:22:21.122Z,101446.11
2018-06-09T04:23:57.501Z,101409.09
2018-06-09T04:25:34.799Z,101362.67
2018-06-09T04:27:13.998Z,101391.30
2018-06-09T04:28:51.582Z,101407.74
2018-06-09T04:30:30.115Z,101399.48
2018-06-09T04:32:06.738Z,101458.27
2018-06-09T04:33:43.441Z,101490.50
2018-06-09T04:35:20.439Z,101504.77
2018-06-09T04:36:56.606Z,101538.31
2018-06-09T04:38:33.571Z,101525.80
2018-06-09T04:40:10.006Z,101558.04
2018-06-09T04:41:47.502Z,101596.44
2018-06-09T04:43:24.900Z,101623.27
2018-06-09T04:45:01.271Z,101632.61
2018-06-09T04:48:15.213Z,101695.78
2018-06-09T04:49:51.594Z,101705.67
2018-06-09T04:51:28.264Z,101729.76
2018-06-09T04:53:06.674Z,101755.72
2018-06-09T04:54:43.317Z,101734.30
2018-06-09T04:56:19.874Z,101697.55
2018-06-09T04:57:56.362Z,101703.85
2018-06-09T04:59:32.694Z,101716.41
2018-06-09T05:01:10.295Z,101707.39
2018-06-09T05:02:46.647Z,101709.22
2018-06-09T05:04:23.171Z,101741.08
2018-06-09T05:06:01.155Z,101775.06
2018-06-09T05:07:38.160Z,101823.45
2018-06-09T05:09:15.151Z,101858.31
2018-06-09T05:10:52.793Z,101931.35
2018-06-09T05:12:29.227Z,101989.16
2018-06-09T05:14:05.689Z,102032.64
2018-06-09T05:15:43.279Z,102024.13
2018-06-09T05:17:19.790Z,101991.34
2018-06-09T05:18:56.220Z,101905.33
2018-06-09T05:20:32.602Z,101869.98
2018-06-09T05:22:10.533Z,101853.83
2018-06-09T05:23:48.250Z,101841.77
2018-06-09T05:25:27.738Z,101810.89
2018-06-09T05:27:04.798Z,101783.99
2018-06-09T05:28:42.621Z,101866.39
2018-06-09T05:30:19.650Z,101981.02
2018-06-09T05:31:56.287Z,102003.97
2018-06-09T05:33:32.704Z,101989.16
2018-06-09T05:35:10.531Z,101984.70
2018-06-09T05:36:47.445Z,102039.75
2018-06-09T05:38:24.071Z,102129.10
2018-06-09T05:40:00.547Z,102160.08
2018-06-09T05:41:37.531Z,102209.42
2018-06-09T05:43:13.878Z,102178.47
2018-06-09T05:44:50.715Z,102236.77
2018-06-09T05:46:27.882Z,102331.55
2018-06-09T05:48:04.874Z,102420.02
2018-06-09T05:49:41.324Z,102434.36
2018-06-09T05:51:17.610Z,102341.43
2018-06-09T05:52:55.945Z,102285.27
2018-06-09T05:54:32.926Z,102318.99
2018-06-09T05:56:09.381Z,102327.53
2018-06-09T05:57:47.073Z,102422.73
2018-06-09T05:59:23.444Z,102479.77
2018-06-09T06:01:01.407Z,102524.73
2018-06-09T06:02:37.763Z,102414.16
2018-06-09T06:04:14.876Z,102327.95
2018-06-09T06:05:52.770Z,102386.32
2018-06-09T06:07:29.834Z,102464.02
2018-06-09T06:09:09.502Z,102614.61
2018-06-09T06:10:47.631Z,102702.36
2018-06-09T06:12:26.263Z,102881.58
2018-06-09T06:14:02.675Z,102999.55
2018-06-09T06:15:39.494Z,103039.19
2018-06-09T06:17:15.941Z,103002.70
2018-06-09T06:18:52.700Z,102994.58
2018-06-09T06:20:29.254Z,102898.64
2018-06-09T06:22:05.971Z,102814.42
2018-06-09T06:23:44.588Z,102846.41
2018-06-09T06:25:22.492Z,102969.80
2018-06-09T06:26:59.887Z,103127.16
2018-06-09T06:28:36.827Z,103191.16
2018-06-09T06:30:16.551Z,103109.06
2018-06-09T06:31:53.470Z,102970.69
2018-06-09T06:33:30.255Z,102939.11
2018-06-09T06:35:07.514Z,102925.66
2018-06-09T06:36:44.553Z,102878.34
2018-06-09T06:38:21.979Z,102854.88
2018-06-09T06:39:58.367Z,102796.30
2018-06-09T06:41:34.774Z,102833.73
2018-06-09T06:43:12.171Z,102898.60
2018-06-09T06:44:49.136Z,102937.28
2018-06-09T06:46:25.934Z,102959.38
2018-06-09T06:48:03.251Z,102870.18
2018-06-09T06:49:40.079Z,102783.71
2018-06-09T06:51:20.267Z,102731.05
2018-06-09T06:52:56.739Z,102652.20
2018-06-09T06:54:33.195Z,102580.27
2018-06-09T06:56:10.960Z,102648.64
2018-06-09T06:57:47.841Z,102678.72
2018-06-09T06:59:24.368Z,102731.94
2018-06-09T07:01:01.182Z,102730.11
2018-06-09T07:02:37.935Z,102659.38
2018-06-09T07:04:16.795Z,102676.94
2018-06-09T07:05:56.451Z,102718.37
2018-06-09T07:07:32.943Z,102792.17
2018-06-09T07:09:10.100Z,102893.97
2018-06-09T07:10:46.458Z,102916.44
2018-06-09T07:12:23.483Z,102801.58
2018-06-09T07:13:59.894Z,102710.68
2018-06-09T07:15:41.661Z,102662.02
2018-06-09T07:19:17.120Z,102630.48
2018-06-09T07:20:59.760Z,102657.13
2018-06-09T07:22:38.842Z,102629.59
2018-06-09T07:24:18.272Z,102581.03
2018-06-09T07:25:56.893Z,102546.84
2018-06-09T07:27:33.924Z,102506.36
2018-06-09T07:29:10.739Z,102585.53
2018-06-09T07:30:53.782Z,102695.25
2018-06-09T07:32:31.463Z,102779.88
2018-06-09T07:34:09.518Z,102842.06
2018-06-09T07:35:47.926Z,102930.73
2018-06-09T07:37:24.510Z,103057.41
2018-06-09T07:39:01.405Z,103021.77
2018-06-09T07:40:39.604Z,103044.77
2018-06-09T07:42:16.023Z,103028.93
2018-06-09T07:43:52.270Z,102977.98
2018-06-09T07:45:31.536Z,102914.44
2018-06-09T07:47:09.848Z,102920.31
2018-06-09T07:48:49.386Z,102903.20
2018-06-09T07:50:33.763Z,102877.50
2018-06-09T07:52:11.233Z,102951.38
2018-06-09T07:53:48.274Z,103000.06
2018-06-09T07:55:24.755Z,103028.84
2018-06-09T07:57:01.158Z,103055.92
2018-06-09T07:58:38.027Z,103065.84
2018-06-09T08:00:17.484Z,103042.81
2018-06-09T08:01:54.263Z,103014.02
2018-06-09T08:03:31.628Z,103014.84
2018-06-09T08:05:09.951Z,103008.07
2018-06-09T08:06:46.813Z,102954.48
2018-06-09T08:08:23.021Z,102930.09
2018-06-09T08:09:59.842Z,102906.65
2018-06-09T08:11:37.472Z,102920.17
2018-06-09T08:13:14.556Z,102935.92
2018-06-09T08:14:52.174Z,102944.05
2018-06-09T08:16:28.385Z,102838.66
2018-06-09T08:18:07.145Z,102701.73
2018-06-09T08:19:44.333Z,102606.80
2018-06-09T08:21:21.845Z,102498.45
2018-06-09T08:22:59.865Z,102437.78
2018-06-09T08:24:38.523Z,102388.80
2018-06-09T08:26:14.986Z,102362.27
2018-06-09T08:27:52.612Z,102372.11
2018-06-09T08:29:30.709Z,102388.70
2018-06-09T08:31:10.798Z,102406.23
2018-06-09T08:32:48.822Z,102370.29
2018-06-09T08:34:27.391Z,102315.02
2018-06-09T08:36:03.976Z,102316.32
2018-06-09T08:37:41.808Z,102313.60
2018-06-09T08:39:20.692Z,102354.97
2018-06-09T08:40:59.651Z,102362.60
2018-06-09T08:42:38.331Z,102381.06
2018-06-09T08:44:17.030Z,102441.67
2018-06-09T08:45:54.450Z,102481.19
2018-06-09T08:47:30.911Z,102531.04
2018-06-09T08:49:08.361Z,102513.09
2018-06-09T08:50:45.115Z,102513.98
2018-06-09T08:52:23.378Z,102575.98
2018-06-09T08:54:00.588Z,102581.84
2018-06-09T08:55:37.083Z,102699.21
2018-06-09T08:57:13.544Z,102754.56
2018-06-09T08:58:50.009Z,102820.78
2018-06-09T09:00:29.037Z,102932.05
2018-06-09T09:02:06.636Z,103012.23
2018-06-09T09:03:44.732Z,103037.06
2018-06-09T09:05:22.230Z,103052.36
2018-06-09T09:07:01.164Z,103091.97
2018-06-09T09:08:39.586Z,103123.06
2018-06-09T09:10:18.478Z,103184.89
2018-06-09T09:11:56.929Z,103185.37
2018-06-09T09:13:38.242Z,103149.31
2018-06-09T09:15:19.294Z,103209.70
2018-06-09T09:17:04.522Z,103356.50
2018-06-09T09:18:42.859Z,103557.58
2018-06-09T09:20:20.487Z,103592.78
2018-06-09T09:21:59.470Z,103538.98
2018-06-09T09:23:38.224Z,103459.41
2018-06-09T09:25:19.126Z,103528.56
2018-06-09T09:27:01.910Z,103514.09
2018-06-09T09:28:40.282Z,103513.63
2018-06-09T09:30:19.973Z,103508.63
2018-06-09T09:31:56.875Z,103458.95
2018-06-09T09:33:38.964Z,103436.80
2018-06-09T09:35:18.924Z,103443.97
2018-06-09T09:36:56.022Z,103469.28
2018-06-09T09:38:34.963Z,103415.05
2018-06-09T09:40:14.266Z,103447.13
2018-06-09T09:41:52.620Z,103401.05
2018-06-09T09:43:29.544Z,103331.94
2018-06-09T09:45:07.442Z,103209.58
2018-06-09T09:46:45.555Z,103151.75
2018-06-09T09:48:25.555Z,103140.54
2018-06-09T09:50:06.192Z,103140.97
2018-06-09T09:51:44.279Z,103183.33
2018-06-09T09:53:21.266Z,103217.20
2018-06-09T09:55:05.494Z,103200.45
2018-06-09T09:56:43.426Z,103195.94
2018-06-09T09:58:20.752Z,103219.38
2018-06-09T09:59:58.394Z,103185.97
2018-06-09T10:01:36.037Z,103129.12
2018-06-09T10:03:17.522Z,103099.34
2018-06-09T10:04:54.844Z,103080.81
2018-06-09T10:08:38.986Z,103112.80
2018-06-09T10:10:18.983Z,103187.71
2018-06-09T10:11:58.646Z,103184.09
2018-06-09T10:13:36.923Z,103210.64
2018-06-09T10:15:15.694Z,103165.98
2018-06-09T10:16:53.931Z,103075.27
2018-06-09T10:18:33.615Z,103007.64
2018-06-09T10:20:12.894Z,103020.76
2018-06-09T10:21:50.112Z,103075.27
2018-06-09T10:23:27.767Z,103131.63
2018-06-09T10:25:07.308Z,103190.23
2018-06-09T10:26:47.728Z,103228.12
2018-06-09T10:28:26.120Z,103210.52
2018-06-09T10:30:04.473Z,103153.62
2018-06-09T10:31:41.373Z,103093.17
2018-06-09T10:33:18.197Z,103116.64
2018-06-09T10:35:03.756Z,103086.43
2018-06-09T10:36:40.435Z,103107.95
2018-06-09T10:38:16.906Z,103186.52
2018-06-09T10:39:54.983Z,103292.59
2018-06-09T10:41:34.599Z,103396.43
2018-06-09T10:43:11.972Z,103333.16
2018-06-09T10:44:49.083Z,103284.88
2018-06-09T10:46:28.451Z,103239.69
2018-06-09T10:48:07.872Z,103297.94
2018-06-09T10:49:45.250Z,103349.80
2018-06-09T10:51:25.815Z,103380.52
2018-06-09T10:53:06.081Z,103259.47
2018-06-09T10:54:46.078Z,103321.35
2018-06-09T10:56:29.491Z,103350.23
2018-06-09T10:58:10.318Z,103383.16
2018-06-09T10:59:50.238Z,103409.41
2018-06-09T11:01:32.617Z,103345.63
2018-06-09T11:03:24.579Z,103218.75
2018-06-09T11:05:08.139Z,103174.55
2018-06-09T11:06:44.574Z,103225.95
2018-06-09T11:08:23.215Z,103300.45
2018-06-09T11:10:00.973Z,103407.95
2018-06-09T11:11:41.166Z,103534.95
2018-06-09T11:13:21.449Z,103617.69
2018-06-09T11:15:03.219Z,103647.47
2018-06-09T11:16:42.916Z,103661.53
2018-06-09T11:18:28.073Z,103698.23
2018-06-09T11:20:09.743Z,103704.52
2018-06-09T11:21:52.350Z,103725.30
2018-06-09T11:23:33.271Z,103707.59
2018-06-09T11:25:16.348Z,103685.92
2018-06-09T11:27:00.379Z,103715.84
2018-06-09T11:28:37.531Z,103755.09
2018-06-09T11:30:16.972Z,103698.54
2018-06-09T11:31:55.303Z,103667.38
2018-06-09T11:33:34.112Z,103737.48
2018-06-09T11:35:12.133Z,103722.91
2018-06-09T11:36:49.291Z,103722.91
2018-06-09T11:38:29.060Z,103760.45
2018-06-09T11:40:07.718Z,103669.05
2018-06-09T11:41:44.752Z,103682.14
2018-06-09T11:45:02.745Z,103712.91
2018-06-09T11:46:39.363Z,103764.05
2018-06-09T11:48:17.539Z,103787.09
2018-06-09T11:49:56.543Z,103821.52
2018-06-09T11:51:39.077Z,103894.84
2018-06-09T11:53:15.485Z,104019.42
2018-06-09T11:54:52.128Z,104014.85
2018-06-09T11:56:29.456Z,103921.58
2018-06-09T11:58:06.785Z,103956.84
2018-06-09T11:59:44.794Z,103984.46
2018-06-09T12:01:21.434Z,103998.06
2018-06-09T12:02:57.838Z,104022.09
2018-06-09T12:04:36.210Z,104056.55
2018-06-09T12:06:18.317Z,104042.00
2018-06-09T12:08:01.145Z,104025.25
2018-06-09T12:09:42.234Z,104039.27
2018-06-09T12:11:23.222Z,104018.41
2018-06-09T12:13:07.600Z,104033.31
2018-06-09T12:14:51.836Z,104052.34
2018-06-09T12:16:31.578Z,104140.78
2018-06-09T12:18:11.558Z,104150.29
2018-06-09T12:19:51.380Z,104210.22
2018-06-09T12:21:34.363Z,104265.05
2018-06-09T12:23:10.872Z,104247.36
2018-06-09T12:24:54.952Z,104264.12
2018-06-09T12:26:32.050Z,104271.41
2018-06-09T12:28:09.008Z,104229.15
2018-06-09T12:29:45.429Z,104191.91
2018-06-09T12:31:24.139Z,104007.31
2018-06-09T12:33:01.019Z,103796.70
2018-06-09T12:34:38.009Z,103986.50
2018-06-09T12:36:15.995Z,104096.17
2018-06-09T12:37:52.478Z,104136.98
2018-06-09T12:39:28.965Z,104199.09
2018-06-09T12:41:06.734Z,104223.63
2018-06-09T12:42:44.510Z,104181.82
2018-06-09T12:44:21.746Z,104125.56
2018-06-09T12:45:58.336Z,104161.42
2018-06-09T12:47:38.011Z,104211.73
2018-06-09T12:49:14.446Z,104237.16
2018-06-09T12:50:53.398Z,104219.85
2018-06-09T12:52:31.520Z,104145.92
2018-06-09T12:54:09.344Z,104141.81
2018-06-09T12:55:46.356Z,104165.39
2018-06-09T12:57:23.931Z,104165.86
2018-06-09T12:59:02.563Z,104194.41
2018-06-09T13:00:41.305Z,104179.84
2018-06-09T13:02:18.403Z,104199.77
2018-06-09T13:03:56.670Z,104166.68
2018-06-09T13:05:33.801Z,104119.47
2018-06-09T13:07:14.339Z,104116.27
2018-06-09T13:08:53.780Z,104150.79
2018-06-09T13:10:33.290Z,104224.68
2018-06-09T13:12:09.910Z,104252.84
2018-06-09T13:13:47.466Z,104170.22
2018-06-09T13:15:28.924Z,104181.06
2018-06-09T13:17:09.360Z,104213.76
2018-06-09T13:18:45.816Z,104262.79
2018-06-09T13:20:23.995Z,104223.23
2018-06-09T13:22:01.274Z,104174.64
2018-06-09T13:23:40.915Z,104163.80
2018-06-09T13:25:17.831Z,104207.77
2018-06-09T13:26:54.216Z,104146.03
2018-06-09T13:28:40.927Z,104124.73
2018-06-09T13:30:22.864Z,104056.67
2018-06-09T13:32:04.446Z,104069.82
2018-06-09T13:33:43.235Z,104105.16
2018-06-09T13:35:20.480Z,104077.45
2018-06-09T13:36:57.832Z,104092.44
2018-06-09T13:38:38.890Z,104102.86
2018-06-09T13:40:19.562Z,104150.06
2018-06-09T13:41:58.072Z,104202.61
2018-06-09T13:43:35.288Z,104242.09
2018-06-09T13:45:16.764Z,104267.95
2018-06-09T13:47:00.475Z,104241.16
2018-06-09T13:48:38.591Z,104119.53
2018-06-09T13:50:17.263Z,104107.36
2018-06-09T13:51:55.456Z,104144.94
2018-06-09T13:53:34.167Z,104187.55
2018-06-09T13:55:11.766Z,104231.09
2018-06-09T13:56:49.615Z,104217.47
2018-06-09T13:58:26.087Z,104224.71
2018-06-09T14:00:06.591Z,104153.44
2018-06-09T14:01:45.562Z,104093.55
2018-06-09T14:03:30.086Z,104089.52
2018-06-09T14:05:08.630Z,104078.59
2018-06-09T14:06:45.181Z,104138.41
2018-06-09T14:08:22.608Z,104015.08
2018-06-09T14:09:59.521Z,103887.23
2018-06-09T14:11:37.831Z,103793.48
2018-06-09T14:13:22.550Z,103779.97
2018-06-09T14:15:00.439Z,103764.53
2018-06-09T14:16:38.669Z,103818.81
2018-06-09T14:18:16.806Z,103917.53
2018-06-09T14:20:04.306Z,104018.61
2018-06-09T14:21:44.243Z,103926.06
2018-06-09T14:23:25.805Z,103907.95
2018-06-09T14:25:02.190Z,103947.84
2018-06-09T14:26:40.861Z,103935.13
2018-06-09T14:28:19.598Z,103986.80
2018-06-09T14:29:57.020Z,104051.16
2018-06-09T14:31:35.867Z,104125.50
2018-06-09T14:33:13.987Z,104086.03
2018-06-09T14:34:51.844Z,104063.34
2018-06-09T14:36:35.603Z,104094.65
2018-06-09T14:38:18.027Z,104130.43
2018-06-09T14:39:55.893Z,104184.94
2018-06-09T14:41:37.466Z,104139.52
2018-06-09T14:43:19.671Z,104113.63
2018-06-09T14:44:58.723Z,104093.20
2018-06-09T14:46:39.603Z,104159.45
2018-06-09T14:48:18.415Z,104207.03
2018-06-09T14:49:55.539Z,104235.70
2018-06-09T14:51:31.954Z,104260.65
2018-06-09T14:53:09.531Z,104262.45
2018-06-09T14:54:46.729Z,104179.81
2018-06-09T14:56:25.316Z,104170.25
2018-06-09T14:58:04.527Z,104159.84
2018-06-09T14:59:42.423Z,104095.44
2018-06-09T15:01:21.044Z,104052.30
2018-06-09T15:03:02.103Z,104079.50
2018-06-09T15:04:41.466Z,104172.05
2018-06-09T15:06:20.462Z,104261.00
2018-06-09T15:07:58.223Z,104372.70
2018-06-09T15:09:34.824Z,104401.78
2018-06-09T15:11:15.383Z,104463.98
2018-06-09T15:12:55.473Z,104470.81
2018-06-09T15:14:31.943Z,104512.59
2018-06-09T15:16:08.500Z,104513.95
2018-06-09T15:17:47.421Z,104594.03
2018-06-09T15:19:31.192Z,104620.77
2018-06-09T15:21:10.659Z,104518.94
2018-06-09T15:22:49.505Z,104437.55
2018-06-09T15:24:27.423Z,104428.89
2018-06-09T15:26:06.880Z,104477.05
2018-06-09T15:27:44.531Z,104440.73
2018-06-09T15:29:26.252Z,104358.91
2018-06-09T15:31:11.446Z,104365.30
2018-06-09T15:32:49.755Z,104454.81
2018-06-09T15:34:27.242Z,104531.15
2018-06-09T15:36:07.659Z,104543.36
2018-06-09T15:37:47.016Z,104570.20
2018-06-09T15:39:23.408Z,104476.11
2018-06-09T15:41:05.962Z,104437.88
2018-06-09T15:42:45.502Z,104475.17
2018-06-09T15:44:22.393Z,104481.06
2018-06-09T15:46:02.555Z,104492.00
2018-06-09T15:47:40.640Z,104593.86
2018-06-09T15:49:18.280Z,104533.75
2018-06-09T15:51:00.259Z,104496.44
2018-06-09T15:52:41.533Z,104459.17
2018-06-09T15:54:20.494Z,104486.01
2018-06-09T15:55:57.503Z,104494.20
2018-06-09T15:57:37.306Z,104580.97
2018-06-09T15:59:16.376Z,104479.58
2018-06-09T16:00:55.187Z,104411.92
2018-06-09T16:02:34.410Z,104219.34
2018-06-09T16:04:19.404Z,104173.04
2018-06-09T16:05:58.132Z,104157.09
2018-06-09T16:07:37.334Z,104184.75
2018-06-09T16:09:17.983Z,104214.72
2018-06-09T16:10:58.783Z,104237.87
2018-06-09T16:12:37.510Z,104290.96
2018-06-09T16:14:15.738Z,104325.92
2018-06-09T16:15:54.175Z,104344.97
2018-06-09T16:17:30.590Z,104393.59
2018-06-09T16:19:12.611Z,104295.94
2018-06-09T16:20:49.116Z,104286.38
2018-06-09T16:22:34.301Z,104255.03
2018-06-09T16:24:10.692Z,104162.43
2018-06-09T16:25:50.646Z,104159.30
2018-06-09T16:27:37.162Z,104161.56
2018-06-09T16:29:16.447Z,104188.78
2018-06-09T16:30:56.442Z,104204.65
2018-06-09T16:32:35.670Z,104221.84
2018-06-09T16:34:14.518Z,104194.58
2018-06-09T16:36:02.322Z,104198.66
2018-06-09T16:37:41.600Z,104099.73
2018-06-09T16:39:19.075Z,104039.88
2018-06-09T16:40:57.562Z,104057.06
2018-06-09T16:44:27.306Z,104142.38
2018-06-09T16:46:08.794Z,104172.33
2018-06-09T16:47:49.355Z,104176.37
2018-06-09T16:53:47.204Z,104215.38
2018-06-09T16:55:26.312Z,104097.81
2018-06-09T16:57:07.339Z,103989.91
2018-06-09T16:58:46.256Z,104007.08
2018-06-09T17:00:30.199Z,104056.52
2018-06-09T17:02:10.542Z,104047.00
2018-06-09T17:03:49.459Z,104039.72
2018-06-09T17:05:29.189Z,104066.50
2018-06-09T17:07:23.595Z,104047.39
2018-06-09T17:09:03.937Z,104061.95
2018-06-09T17:10:45.306Z,104026.10
2018-06-09T17:12:24.544Z,103990.77
2018-06-09T17:14:05.237Z,103989.86
2018-06-09T17:15:42.858Z,104024.27
2018-06-09T17:17:21.442Z,104062.27
2018-06-09T17:18:58.635Z,104130.86
2018-06-09T17:20:38.624Z,104174.84
2018-06-09T17:22:18.304Z,104165.79
2018-06-09T17:23:55.504Z,104043.72
2018-06-09T17:25:32.542Z,104012.95
2018-06-09T17:27:10.528Z,104009.73
2018-06-09T17:28:48.781Z,104009.73
2018-06-09T17:30:28.186Z,104048.69
2018-06-09T17:32:06.576Z,104056.39
2018-06-09T17:33:44.237Z,104070.84
2018-06-09T17:35:22.227Z,104029.19
2018-06-09T17:36:59.554Z,104016.90
2018-06-09T17:38:35.964Z,103978.83
2018-06-09T17:40:15.288Z,103924.05
2018-06-09T17:41:57.150Z,103822.95
2018-06-09T17:43:35.918Z,103713.27
2018-06-09T17:45:14.646Z,103662.17
2018-06-09T17:46:51.972Z,103670.81
2018-06-09T17:48:30.268Z,103693.86
2018-06-09T17:50:09.683Z,103742.27
2018-06-09T17:51:49.938Z,103775.73
2018-06-09T17:53:32.214Z,103790.23
2018-06-09T17:55:11.469Z,103848.76
2018-06-09T17:56:50.231Z,103910.83
2018-06-09T17:58:31.687Z,103965.67
2018-06-09T18:00:15.427Z,103969.70
2018-06-09T18:01:52.832Z,103938.41
2018-06-09T18:03:29.604Z,103966.97
2018-06-09T18:05:14.751Z,103938.41
2018-06-09T18:06:52.472Z,103938.83
2018-06-09T18:08:30.015Z,103904.45
2018-06-09T18:10:07.232Z,103823.81
2018-06-09T18:11:43.648Z,103729.58
2018-06-09T18:13:20.110Z,103690.09
2018-06-09T18:14:59.483Z,103640.33
2018-06-09T18:16:37.914Z,103638.48
2018-06-09T18:18:16.180Z,103668.38
2018-06-09T18:19:57.579Z,103709.59
2018-06-09T18:21:34.827Z,103720.89
2018-06-09T18:23:13.800Z,103771.63
2018-06-09T18:24:53.765Z,103812.43
2018-06-09T18:26:34.431Z,103858.18
2018-06-09T18:28:15.808Z,103811.91
2018-06-09T18:29:54.839Z,103833.70
2018-06-09T18:31:33.528Z,103874.05
2018-06-09T18:33:10.550Z,103893.48
2018-06-09T18:34:47.115Z,103896.66
2018-06-09T18:36:24.734Z,103905.70
2018-06-09T18:38:04.604Z,103928.34
2018-06-09T18:39:41.545Z,103951.97
2018-06-09T18:41:21.287Z,103983.62
2018-06-09T18:43:01.601Z,103995.48
2018-06-09T18:44:38.038Z,104008.63
2018-06-09T18:46:16.736Z,104004.09
2018-06-09T18:47:58.696Z,104024.91
2018-06-09T18:49:39.627Z,104015.84
2018-06-09T18:51:36.237Z,103974.59
2018-06-09T18:53:17.426Z,103918.41
2018-06-09T18:54:56.514Z,103912.08
2018-06-09T18:56:34.328Z,103823.22
2018-06-09T18:58:15.223Z,103779.28